Time;durP1;ratioP1;P1;durP2;ratioP2;P2;SDS_P1;SDS_P2;PMS_P1;PMS_P2;Temp;Humidity;BMP_temperature;BMP_pressure;BME280_temperature;BME280_humidity;BME280_pressure;Samples;Min_cycle;Max_cycle;Signal;HPM_P1;HPM_P2
2023/06/09 00:00:38;;;;;;;20.00;10.55;;;;;;;;;;5053621;28;20029;-77
2023/06/09 00:03:05;;;;;;;16.48;11.13;;;;;;;;;;5036971;28;20029;-77
2023/06/09 00:05:32;;;;;;;19.63;10.25;;;;;;;;;;5055079;28;20032;-77
2023/06/09 00:07:58;;;;;;;23.88;11.15;;;;;;;;;;5053110;28;20314;-77
2023/06/09 00:10:24;;;;;;;19.00;10.88;;;;;;;;;;5053272;28;20431;-78
2023/06/09 00:12:50;;;;;;;23.02;11.10;;;;;;;;;;5054922;28;20056;-77
2023/06/09 00:15:16;;;;;;;17.75;10.90;;;;;;;;;;5053443;28;20107;-78
2023/06/09 00:17:41;;;;;;;24.02;10.82;;;;;;;;;;5050483;28;20036;-78
2023/06/09 00:20:08;;;;;;;19.50;11.15;;;;;;;;;;5069479;28;20028;-78
2023/06/09 00:22:34;;;;;;;19.10;10.98;;;;;;;;;;5069200;28;20033;-78
2023/06/09 00:25:00;;;;;;;21.83;11.23;;;;;;;;;;5053088;28;20521;-77
2023/06/09 00:27:25;;;;;;;29.20;11.57;;;;;;;;;;5069572;28;20124;-79
2023/06/09 00:29:51;;;;;;;20.67;10.88;;;;;;;;;;5054277;28;20040;-77
2023/06/09 00:32:16;;;;;;;18.23;11.57;;;;;;;;;;5054147;28;20032;-78
2023/06/09 00:34:43;;;;;;;19.75;11.73;;;;;;;;;;5055389;28;20044;-78
2023/06/09 00:37:08;;;;;;;20.35;12.00;;;;;;;;;;5043238;28;20441;-78
2023/06/09 00:39:33;;;;;;;23.45;11.98;;;;;;;;;;5062290;28;20063;-78
2023/06/09 00:41:59;;;;;;;17.33;11.68;;;;;;;;;;5062890;28;20021;-78
2023/06/09 00:44:25;;;;;;;23.17;12.80;;;;;;;;;;5064788;28;20059;-78
2023/06/09 00:46:50;;;;;;;25.50;12.63;;;;;;;;;;5062927;28;20028;-78
2023/06/09 00:49:15;;;;;;;23.90;12.57;;;;;;;;;;5043734;28;20415;-77
2023/06/09 00:51:41;;;;;;;23.35;12.85;;;;;;;;;;5055776;28;20028;-78
2023/06/09 00:54:06;;;;;;;25.48;12.98;;;;;;;;;;5074046;28;20021;-78
2023/06/09 00:56:32;;;;;;;24.67;12.90;;;;;;;;;;5073865;28;20025;-78
2023/06/09 00:58:58;;;;;;;21.92;11.55;;;;;;;;;;5074062;28;20035;-78
2023/06/09 01:01:23;;;;;;;18.65;12.32;;;;;;;;;;5055854;28;20039;-79
2023/06/09 01:03:49;;;;;;;21.42;12.80;;;;;;;;;;5073770;28;20090;-78
2023/06/09 01:06:32;;;;;;;22.15;12.52;;;;;;;;;;5073471;28;20115;-78
2023/06/09 01:09:02;;;;;;;28.77;12.20;;;;;;;;;;5072493;28;20024;-78
2023/06/09 01:11:35;;;;;;;20.92;12.68;;;;;;;;;;5073646;28;20028;-78
2023/06/09 01:14:05;;;;;;;26.83;12.20;;;;;;;;;;5072462;28;20040;-80
2023/06/09 01:16:47;;;;;;;21.38;12.77;;;;;;;;;;5039378;28;20511;-78
2023/06/09 01:19:24;;;;;;;20.98;12.45;;;;;;;;;;5079448;28;20067;-78
2023/06/09 01:21:50;;;;;;;26.80;11.73;;;;;;;;;;5034782;28;20541;-77
2023/06/09 01:25:03;;;;;;;25.23;12.27;;;;;;;;;;5052529;28;20071;-78
2023/06/09 01:27:29;;;;;;;21.20;11.68;;;;;;;;;;5031605;28;20076;-78
2023/06/09 01:29:55;;;;;;;28.35;12.18;;;;;;;;;;4998702;28;20136;-77
2023/06/09 01:32:20;;;;;;;22.73;11.70;;;;;;;;;;5026210;28;20095;-78
2023/06/09 01:34:46;;;;;;;26.88;12.48;;;;;;;;;;5051991;28;20538;-79
2023/06/09 01:37:12;;;;;;;20.90;11.38;;;;;;;;;;5052032;28;20036;-77
2023/06/09 01:39:37;;;;;;;26.05;12.25;;;;;;;;;;5052202;28;20392;-78
2023/06/09 01:42:03;;;;;;;20.95;11.85;;;;;;;;;;5052682;28;20033;-78
2023/06/09 01:44:28;;;;;;;19.60;11.82;;;;;;;;;;5053212;28;20029;-78
2023/06/09 01:46:55;;;;;;;22.70;12.00;;;;;;;;;;5053149;28;20033;-78
2023/06/09 01:49:28;;;;;;;21.85;11.77;;;;;;;;;;5052815;28;20136;-78
2023/06/09 01:52:01;;;;;;;19.05;11.55;;;;;;;;;;5051509;28;20074;-78
2023/06/09 01:55:07;;;;;;;17.15;11.45;;;;;;;;;;5052470;28;20029;-78
2023/06/09 01:57:38;;;;;;;26.35;12.23;;;;;;;;;;5014632;28;20038;-78
2023/06/09 02:00:04;;;;;;;;;;;;;;;;;;4999246;28;20043;-78
2023/06/09 02:02:31;;;;;;;25.92;12.18;;;;;;;;;;5042609;28;19938;-78
2023/06/09 02:04:58;;;;;;;23.05;12.38;;;;;;;;;;5068214;28;20082;-76
2023/06/09 02:07:24;;;;;;;23.00;12.32;;;;;;;;;;5035908;28;20090;-77
2023/06/09 02:09:49;;;;;;;24.50;12.18;;;;;;;;;;5035359;28;20454;-78
2023/06/09 02:12:15;;;;;;;26.08;13.38;;;;;;;;;;5053597;28;20021;-78
2023/06/09 02:14:41;;;;;;;16.60;11.65;;;;;;;;;;5068573;28;20453;-78
2023/06/09 02:17:08;;;;;;;24.73;12.05;;;;;;;;;;5068539;28;20055;-77
2023/06/09 02:19:35;;;;;;;21.27;12.23;;;;;;;;;;5052617;28;20035;-78
2023/06/09 02:22:01;;;;;;;24.73;11.23;;;;;;;;;;5070078;28;20473;-78
2023/06/09 02:24:28;;;;;;;23.77;11.38;;;;;;;;;;5071982;28;20029;-77
2023/06/09 02:26:56;;;;;;;19.15;10.93;;;;;;;;;;5038851;28;20025;-77
2023/06/09 02:29:25;;;;;;;30.35;11.10;;;;;;;;;;5038436;28;20047;-77
2023/06/09 02:31:56;;;;;;;23.52;11.32;;;;;;;;;;5056371;28;20115;-77
2023/06/09 02:34:26;;;;;;;23.83;11.70;;;;;;;;;;5071106;28;20027;-77
2023/06/09 02:36:55;;;;;;;;;;;;;;;;;;5071512;28;20143;-78
2023/06/09 02:39:21;;;;;;;22.85;11.93;;;;;;;;;;5056247;28;19913;-78
2023/06/09 02:41:47;;;;;;;20.08;11.85;;;;;;;;;;5071541;28;20029;-79
2023/06/09 02:44:12;;;;;;;21.55;11.98;;;;;;;;;;5055003;28;20029;-79
2023/06/09 02:46:40;;;;;;;26.75;12.45;;;;;;;;;;5056115;28;20123;-79
2023/06/09 02:49:06;;;;;;;24.60;12.70;;;;;;;;;;5055889;28;20635;-80
2023/06/09 02:51:31;;;;;;;28.48;12.35;;;;;;;;;;5071498;28;20041;-79
2023/06/09 02:53:56;;;;;;;31.23;13.40;;;;;;;;;;5056033;28;20119;-79
2023/06/09 02:56:22;;;;;;;32.22;13.50;;;;;;;;;;5071393;28;20040;-79
2023/06/09 02:58:48;;;;;;;20.92;12.68;;;;;;;;;;5037994;28;20458;-79
2023/06/09 03:01:17;;;;;;;28.02;12.95;;;;;;;;;;5071603;28;20112;-79
2023/06/09 03:03:46;;;;;;;23.73;13.67;;;;;;;;;;5070618;28;20028;-79
2023/06/09 03:06:13;;;;;;;26.95;13.27;;;;;;;;;;5055813;28;20272;-78
2023/06/09 03:08:41;;;;;;;28.73;13.75;;;;;;;;;;5038369;28;20374;-78
2023/06/09 03:11:07;;;;;;;35.00;14.38;;;;;;;;;;5056110;28;20052;-79
2023/06/09 03:13:32;;;;;;;30.60;14.27;;;;;;;;;;5054676;28;20450;-79
2023/06/09 03:15:58;;;;;;;28.17;14.68;;;;;;;;;;5055512;28;20029;-78
2023/06/09 03:18:24;;;;;;;25.13;14.35;;;;;;;;;;5053895;28;20378;-79
2023/06/09 03:20:50;;;;;;;28.23;13.10;;;;;;;;;;5054112;28;20086;-78
2023/06/09 03:23:17;;;;;;;27.40;13.63;;;;;;;;;;5070079;28;20119;-77
2023/06/09 03:25:42;;;;;;;29.83;13.65;;;;;;;;;;5037327;28;20368;-77
2023/06/09 03:28:08;;;;;;;28.67;14.35;;;;;;;;;;5037621;28;20028;-78
2023/06/09 03:30:33;;;;;;;27.98;14.98;;;;;;;;;;5037901;28;20029;-78
2023/06/09 03:32:58;;;;;;;26.88;14.25;;;;;;;;;;5055083;28;20066;-78
2023/06/09 03:35:24;;;;;;;32.08;14.50;;;;;;;;;;5070577;28;20551;-78
2023/06/09 03:37:49;;;;;;;26.88;14.23;;;;;;;;;;5055204;28;20131;-77
2023/06/09 03:40:15;;;;;;;31.30;14.27;;;;;;;;;;5037229;28;20146;-77
2023/06/09 03:42:40;;;;;;;32.15;13.95;;;;;;;;;;5055109;28;20029;-78
2023/06/09 03:45:06;;;;;;;24.20;12.75;;;;;;;;;;5053768;28;20454;-79
2023/06/09 03:47:32;;;;;;;26.30;13.70;;;;;;;;;;5036618;28;20043;-78
2023/06/09 03:49:57;;;;;;;24.67;13.70;;;;;;;;;;5058117;28;20048;-77
2023/06/09 03:52:25;;;;;;;26.67;13.98;;;;;;;;;;5017257;28;20030;-77
2023/06/09 03:54:51;;;;;;;22.98;12.90;;;;;;;;;;5017013;28;20029;-77
2023/06/09 03:57:16;;;;;;;31.35;14.00;;;;;;;;;;5050324;28;20030;-78
2023/06/09 03:59:41;;;;;;;31.30;13.68;;;;;;;;;;5049882;28;20371;-77
2023/06/09 04:02:07;;;;;;;31.23;13.75;;;;;;;;;;5033557;28;20056;-76
2023/06/09 04:04:32;;;;;;;26.25;13.73;;;;;;;;;;5034776;28;20034;-77
2023/06/09 04:06:59;;;;;;;31.42;13.10;;;;;;;;;;5034654;28;20033;-77
2023/06/09 04:09:25;;;;;;;26.45;13.75;;;;;;;;;;5034535;28;20467;-77
2023/06/09 04:11:51;;;;;;;21.25;13.00;;;;;;;;;;5050242;28;20344;-77
2023/06/09 04:14:16;;;;;;;31.55;14.07;;;;;;;;;;5034284;28;20036;-76
2023/06/09 04:16:43;;;;;;;20.65;12.65;;;;;;;;;;5016601;28;20043;-76
2023/06/09 04:19:08;;;;;;;26.75;13.70;;;;;;;;;;5034438;28;20116;-76
2023/06/09 04:21:34;;;;;;;32.08;14.00;;;;;;;;;;5034331;28;20061;-79
2023/06/09 04:23:59;;;;;;;29.55;13.88;;;;;;;;;;5033091;28;20374;-77
2023/06/09 04:26:25;;;;;;;27.65;13.75;;;;;;;;;;5034413;28;20041;-77
2023/06/09 04:28:53;;;;;;;28.90;13.88;;;;;;;;;;5016203;28;20033;-78
2023/06/09 04:31:23;;;;;;;27.42;13.93;;;;;;;;;;5034238;28;20026;-76
2023/06/09 04:33:53;;;;;;;29.90;14.98;;;;;;;;;;5017240;28;20087;-78
2023/06/09 04:36:20;;;;;;;26.67;14.27;;;;;;;;;;5016974;28;20036;-76
2023/06/09 04:38:46;;;;;;;23.90;14.18;;;;;;;;;;5034896;28;20044;-88
2023/06/09 04:41:12;;;;;;;24.63;14.23;;;;;;;;;;5036064;28;20029;-89
2023/06/09 04:43:39;;;;;;;28.02;13.82;;;;;;;;;;5032967;28;20064;-89
2023/06/09 04:46:08;;;;;;;33.90;15.27;;;;;;;;;;5026217;28;20029;-90
2023/06/09 04:48:36;;;;;;;23.83;13.45;;;;;;;;;;5041858;28;20040;-89
2023/06/09 04:51:03;;;;;;;23.30;13.98;;;;;;;;;;5022990;28;20450;-88
2023/06/09 04:53:29;;;;;;;25.90;13.48;;;;;;;;;;5084325;28;20036;-90
2023/06/09 04:55:55;;;;;;;27.17;14.07;;;;;;;;;;5064947;28;20128;-87
2023/06/09 04:58:20;;;;;;;23.88;13.35;;;;;;;;;;5022884;28;20042;-88
2023/06/09 05:00:53;;;;;;;29.35;14.57;;;;;;;;;;5042548;28;20123;-91
2023/06/09 05:06:07;;;;;;;26.92;14.40;;;;;;;;;;5080600;22;20057;-88
2023/06/09 05:08:33;;;;;;;26.23;13.52;;;;;;;;;;5009724;28;20046;-89
2023/06/09 05:11:01;;;;;;;24.98;14.15;;;;;;;;;;4987982;28;20460;-89
2023/06/09 05:13:27;;;;;;;27.05;13.10;;;;;;;;;;5016478;28;20137;-89
2023/06/09 05:15:53;;;;;;;25.83;12.73;;;;;;;;;;5012443;28;20657;-89
2023/06/09 05:18:19;;;;;;;22.08;12.18;;;;;;;;;;5016723;28;20094;-89
2023/06/09 05:20:44;;;;;;;23.83;11.75;;;;;;;;;;5003754;28;20116;-89
2023/06/09 05:23:14;;;;;;;22.70;11.75;;;;;;;;;;5026438;28;20017;-88
2023/06/09 05:25:40;;;;;;;23.52;12.00;;;;;;;;;;5014612;28;20029;-89
2023/06/09 05:28:06;;;;;;;25.73;15.13;;;;;;;;;;5027067;28;20056;-90
2023/06/09 05:31:07;;;;;;;34.55;14.82;;;;;;;;;;5004205;28;20025;-90
2023/06/09 05:33:53;;;;;;;30.20;15.13;;;;;;;;;;5016330;28;20049;-87
2023/06/09 05:36:19;;;;;;;31.20;14.57;;;;;;;;;;4986248;28;20021;-88
2023/06/09 05:38:45;;;;;;;25.13;13.30;;;;;;;;;;5017908;28;20033;-86
2023/06/09 05:41:14;;;;;;;23.23;12.27;;;;;;;;;;5022101;28;20390;-90
2023/06/09 05:44:03;;;;;;;25.43;11.27;;;;;;;;;;5014788;28;20038;-88
2023/06/09 05:47:14;;;;;;;17.73;10.60;;;;;;;;;;4994319;28;20769;-86
2023/06/09 05:49:41;;;;;;;21.05;10.57;;;;;;;;;;5036805;28;20056;-88
2023/06/09 05:52:07;;;;;;;20.00;9.98;;;;;;;;;;4985691;28;20228;-84
2023/06/09 05:54:33;;;;;;;20.92;10.88;;;;;;;;;;5034254;28;20040;-87
2023/06/09 05:57:12;;;;;;;22.33;12.07;;;;;;;;;;5036370;28;20052;-89
2023/06/09 05:59:47;;;;;;;22.02;10.52;;;;;;;;;;5014859;28;20037;-87
2023/06/09 06:02:14;;;;;;;18.63;9.10;;;;;;;;;;5010186;28;20056;-84
2023/06/09 06:04:44;;;;;;;16.23;9.18;;;;;;;;;;5037792;22;20039;-87
2023/06/09 06:07:36;;;;;;;16.85;8.93;;;;;;;;;;5053508;28;20095;-88
2023/06/09 06:13:22;;;;;;;14.63;8.63;;;;;;;;;;5075551;22;20045;-88
2023/06/09 06:15:51;;;;;;;18.60;8.50;;;;;;;;;;5042040;28;20112;-87
2023/06/09 06:18:53;;;;;;;14.23;8.40;;;;;;;;;;5057103;28;20029;-87
2023/06/09 06:21:24;;;;;;;18.13;8.45;;;;;;;;;;5074214;22;20056;-89
2023/06/09 06:23:50;;;;;;;20.77;8.27;;;;;;;;;;5088230;28;20092;-89
2023/06/09 06:26:15;;;;;;;17.70;8.60;;;;;;;;;;5068505;28;20013;-90
2023/06/09 06:28:41;;;;;;;17.42;8.48;;;;;;;;;;5069061;28;20051;-90
2023/06/09 06:31:13;;;;;;;14.10;8.65;;;;;;;;;;5075429;28;20025;-89
2023/06/09 06:33:39;;;;;;;16.77;8.18;;;;;;;;;;5081600;28;20051;-86
2023/06/09 06:36:14;;;;;;;14.32;8.50;;;;;;;;;;5070054;28;20060;-89
2023/06/09 06:38:39;;;;;;;14.73;8.45;;;;;;;;;;5068904;28;20029;-89
2023/06/09 06:41:05;;;;;;;19.48;8.30;;;;;;;;;;5100877;28;20096;-88
2023/06/09 06:43:30;;;;;;;16.20;8.60;;;;;;;;;;5091889;28;20033;-89
2023/06/09 06:46:11;;;;;;;18.63;8.68;;;;;;;;;;5074970;28;20048;-89
2023/06/09 06:48:43;;;;;;;14.25;8.35;;;;;;;;;;5088730;28;20056;-85
2023/06/09 06:51:09;;;;;;;15.48;8.23;;;;;;;;;;5053337;28;20021;-87
2023/06/09 06:53:48;;;;;;;12.77;8.30;;;;;;;;;;5050745;28;20067;-86
2023/06/09 06:56:13;;;;;;;17.75;8.27;;;;;;;;;;5064729;28;20088;-87
2023/06/09 06:58:39;;;;;;;15.77;8.73;;;;;;;;;;5060605;28;20060;-83
2023/06/09 07:01:05;;;;;;;13.60;8.85;;;;;;;;;;5051411;28;20044;-85
2023/06/09 07:03:33;;;;;;;16.75;9.05;;;;;;;;;;5052250;28;20048;-88
2023/06/09 07:05:58;;;;;;;15.73;8.77;;;;;;;;;;5034297;28;20060;-87
2023/06/09 07:08:25;;;;;;;20.05;9.55;;;;;;;;;;5050513;28;20512;-88
2023/06/09 07:10:51;;;;;;;21.58;9.40;;;;;;;;;;5038015;28;20064;-86
2023/06/09 07:13:17;;;;;;;15.95;9.00;;;;;;;;;;5055314;28;20032;-88
2023/06/09 07:15:45;;;;;;;18.58;9.25;;;;;;;;;;5069934;28;20119;-89
2023/06/09 07:18:11;;;;;;;18.23;9.43;;;;;;;;;;5058748;28;20127;-91
2023/06/09 07:20:36;;;;;;;12.50;8.38;;;;;;;;;;5068239;28;20538;-91
2023/06/09 07:23:02;;;;;;;14.18;8.07;;;;;;;;;;5022540;28;20028;-90
2023/06/09 07:26:03;;;;;;;15.70;8.70;;;;;;;;;;5055720;28;20363;-88
2023/06/09 07:28:57;;;;;;;;;;;;;;;;;;;;;
2023/06/09 07:31:23;;;;;;;16.73;8.70;;;;;;;;;;5030755;28;20040;-88
2023/06/09 07:36:14;;;;;;;17.85;9.50;;;;;;;;;;5061724;22;20505;-89
2023/06/09 07:38:44;;;;;;;19.65;9.13;;;;;;;;;;5034438;28;20025;-90
2023/06/09 07:41:09;;;;;;;14.50;8.70;;;;;;;;;;5037018;28;20056;-87
2023/06/09 07:43:43;;;;;;;15.73;7.35;;;;;;;;;;5041054;28;20052;-91
2023/06/09 07:46:10;;;;;;;15.25;7.70;;;;;;;;;;5037775;28;20086;-87
2023/06/09 07:48:38;;;;;;;14.63;7.72;;;;;;;;;;5036291;28;20431;-86
2023/06/09 07:51:04;;;;;;;11.90;7.68;;;;;;;;;;5044020;28;20048;-85
2023/06/09 07:53:30;;;;;;;14.07;8.45;;;;;;;;;;5032971;28;20069;-84
2023/06/09 07:55:56;;;;;;;14.27;8.18;;;;;;;;;;5045966;28;20128;-89
2023/06/09 07:58:22;;;;;;;17.30;8.50;;;;;;;;;;5049704;28;20115;-85
2023/06/09 08:00:48;;;;;;;20.05;8.20;;;;;;;;;;5032445;28;20128;-88
2023/06/09 08:03:13;;;;;;;18.90;8.55;;;;;;;;;;5052695;28;20028;-88
2023/06/09 08:05:39;;;;;;;15.38;8.48;;;;;;;;;;5034165;28;20050;-88
2023/06/09 08:08:26;;;;;;;13.85;8.57;;;;;;;;;;5036148;28;20090;-89
2023/06/09 08:10:52;;;;;;;15.25;7.97;;;;;;;;;;5055570;28;20033;-89
2023/06/09 08:13:34;;;;;;;16.25;9.27;;;;;;;;;;5047969;28;20029;-88
2023/06/09 08:16:02;;;;;;;17.40;9.07;;;;;;;;;;5038352;28;20036;-89
2023/06/09 08:18:28;;;;;;;16.70;8.77;;;;;;;;;;5037284;28;20029;-88
2023/06/09 08:20:53;;;;;;;16.42;8.75;;;;;;;;;;5039303;28;20077;-89
2023/06/09 08:23:22;;;;;;;17.55;8.70;;;;;;;;;;5025063;28;20025;-90
2023/06/09 08:25:48;;;;;;;13.57;9.02;;;;;;;;;;5025556;28;20025;-89
2023/06/09 08:28:14;;;;;;;19.42;9.38;;;;;;;;;;5043001;28;20111;-88
2023/06/09 08:30:48;;;;;;;16.30;9.70;;;;;;;;;;5038270;28;20025;-90
2023/06/09 08:33:14;;;;;;;15.45;9.85;;;;;;;;;;5038079;28;20024;-88
2023/06/09 08:35:41;;;;;;;14.20;8.18;;;;;;;;;;5041755;28;20470;-90
2023/06/09 08:38:10;;;;;;;13.88;8.75;;;;;;;;;;5054591;28;20370;-87
2023/06/09 08:40:35;;;;;;;12.45;7.90;;;;;;;;;;5006959;28;20350;-90
2023/06/09 08:43:10;;;;;;;15.02;8.10;;;;;;;;;;5026388;28;20040;-91
2023/06/09 08:45:37;;;;;;;12.02;7.53;;;;;;;;;;5040921;22;20053;-92
2023/06/09 08:48:03;;;;;;;20.92;8.68;;;;;;;;;;5066558;22;20072;-89
2023/06/09 08:50:31;;;;;;;12.48;8.88;;;;;;;;;;5008543;28;20049;-90
2023/06/09 08:52:56;;;;;;;13.65;7.82;;;;;;;;;;5046243;28;20053;-92
2023/06/09 08:55:25;;;;;;;14.82;7.72;;;;;;;;;;5030310;28;20028;-90
2023/06/09 08:57:53;;;;;;;18.95;8.38;;;;;;;;;;5046185;28;20113;-91
2023/06/09 09:00:19;;;;;;;11.90;7.35;;;;;;;;;;5010708;28;20053;-89
2023/06/09 09:02:46;;;;;;;12.70;6.93;;;;;;;;;;5042785;28;20021;-90
2023/06/09 09:05:16;;;;;;;13.50;7.53;;;;;;;;;;4999992;28;20043;-89
2023/06/09 09:07:52;;;;;;;10.52;7.15;;;;;;;;;;5045039;28;20403;-90
2023/06/09 09:10:21;;;;;;;15.20;7.40;;;;;;;;;;5046406;28;20026;-90
2023/06/09 09:12:51;;;;;;;10.13;7.50;;;;;;;;;;4999623;28;20029;-89
2023/06/09 09:15:20;;;;;;;9.68;6.40;;;;;;;;;;5023661;28;20490;-89
2023/06/09 09:17:46;;;;;;;8.73;5.82;;;;;;;;;;5010358;28;20077;-92
2023/06/09 09:20:14;;;;;;;10.10;6.40;;;;;;;;;;5020515;28;20061;-87
2023/06/09 09:22:49;;;;;;;11.35;5.90;;;;;;;;;;5057209;28;20365;-90
2023/06/09 09:25:28;;;;;;;8.50;5.55;;;;;;;;;;5011327;28;20432;-88
2023/06/09 09:28:04;;;;;;;;;;;;;;;;;;5045585;28;20041;-88
2023/06/09 09:30:46;;;;;;;6.95;5.28;;;;;;;;;;5020846;28;19926;-88
2023/06/09 09:33:13;;;;;;;7.97;5.65;;;;;;;;;;5018113;28;20042;-90
2023/06/09 09:35:39;;;;;;;8.80;5.70;;;;;;;;;;5050789;28;20371;-88
2023/06/09 09:38:16;;;;;;;9.23;5.30;;;;;;;;;;5021712;28;20034;-90
2023/06/09 09:43:30;;;;;;;7.85;5.25;;;;;;;;;;5044206;28;20087;-88
2023/06/09 09:46:07;;;;;;;8.93;5.15;;;;;;;;;;5035041;28;20046;-91
2023/06/09 09:48:33;;;;;;;8.10;5.03;;;;;;;;;;5040702;28;20072;-88
2023/06/09 09:51:22;;;;;;;8.43;4.90;;;;;;;;;;5031955;28;20025;-92
2023/06/09 09:53:50;;;;;;;;;;;;;;;;;;5064165;28;20036;-89
2023/06/09 09:56:18;;;;;;;9.93;5.05;;;;;;;;;;5045910;28;19913;-88
2023/06/09 09:58:44;;;;;;;10.02;4.70;;;;;;;;;;5075181;28;20029;-90
2023/06/09 10:01:10;;;;;;;9.95;4.75;;;;;;;;;;5054353;28;20084;-89
2023/06/09 10:03:38;;;;;;;7.82;5.32;;;;;;;;;;5034811;28;20358;-90
2023/06/09 10:06:03;;;;;;;5.70;4.90;;;;;;;;;;5018596;28;20025;-89
2023/06/09 10:08:32;;;;;;;9.10;5.00;;;;;;;;;;5035695;28;20040;-91
2023/06/09 10:10:59;;;;;;;11.38;5.10;;;;;;;;;;5035854;28;20083;-90
2023/06/09 10:13:31;;;;;;;12.35;5.55;;;;;;;;;;5036549;28;20124;-87
2023/06/09 10:15:57;;;;;;;6.05;4.80;;;;;;;;;;5055042;28;20371;-89
2023/06/09 10:18:22;;;;;;;7.93;5.47;;;;;;;;;;5054370;28;20045;-90
2023/06/09 10:20:50;;;;;;;9.27;5.47;;;;;;;;;;5049423;28;20085;-86
2023/06/09 10:23:17;;;;;;;9.00;5.00;;;;;;;;;;5040752;28;20033;-87
2023/06/09 10:25:42;;;;;;;7.53;5.13;;;;;;;;;;5040872;28;20032;-86
2023/06/09 10:28:09;;;;;;;15.57;5.22;;;;;;;;;;5038817;28;20029;-87
2023/06/09 10:30:35;;;;;;;8.25;5.05;;;;;;;;;;5053290;28;20025;-89
2023/06/09 10:33:35;;;;;;;13.57;5.35;;;;;;;;;;5052537;28;20613;-88
2023/06/09 10:36:05;;;;;;;9.63;4.90;;;;;;;;;;5055479;28;20038;-88
2023/06/09 10:38:54;;;;;;;7.70;5.38;;;;;;;;;;5051141;28;20122;-88
2023/06/09 10:41:31;;;;;;;13.48;5.60;;;;;;;;;;5034577;28;20032;-89
2023/06/09 10:44:18;;;;;;;8.30;5.40;;;;;;;;;;5013137;28;20116;-89
2023/06/09 10:46:47;;;;;;;10.02;5.15;;;;;;;;;;5006903;28;20100;-90
2023/06/09 10:49:36;;;;;;;10.85;5.38;;;;;;;;;;5055080;28;20048;-89
2023/06/09 10:52:05;;;;;;;;;;;;;;;;;;5053360;28;20044;-91
2023/06/09 10:54:32;;;;;;;12.75;6.40;;;;;;;;;;5043751;28;19909;-90
2023/06/09 10:57:00;;;;;;;10.85;5.68;;;;;;;;;;5081745;28;20036;-89
2023/06/09 10:59:25;;;;;;;10.10;5.78;;;;;;;;;;5043651;28;20034;-90
2023/06/09 11:02:18;;;;;;;7.72;5.22;;;;;;;;;;5059711;28;20045;-91
2023/06/09 11:04:48;;;;;;;9.25;5.38;;;;;;;;;;5040620;28;20034;-91
2023/06/09 11:07:15;;;;;;;10.55;5.20;;;;;;;;;;5048055;28;20021;-91
2023/06/09 11:10:00;;;;;;;12.07;5.10;;;;;;;;;;5045726;28;20033;-87
2023/06/09 11:12:38;;;;;;;6.38;4.93;;;;;;;;;;5006889;28;20189;-90
2023/06/09 11:15:04;;;;;;;7.18;4.75;;;;;;;;;;5004402;28;20393;-89
2023/06/09 11:17:34;;;;;;;5.22;4.70;;;;;;;;;;5000422;28;20049;-90
2023/06/09 11:20:11;;;;;;;;;;;;;;;;;;5017146;28;20089;-89
2023/06/09 11:22:44;;;;;;;8.63;4.60;;;;;;;;;;5039820;28;19913;-90
2023/06/09 11:25:18;;;;;;;5.55;4.60;;;;;;;;;;5016593;28;20021;-90
2023/06/09 11:27:45;;;;;;;7.13;4.78;;;;;;;;;;5014708;28;20124;-88
2023/06/09 11:30:18;;;;;;;7.10;4.78;;;;;;;;;;4997618;28;20033;-90
2023/06/09 11:32:57;;;;;;;7.35;4.70;;;;;;;;;;5012887;28;20435;-89
2023/06/09 11:35:29;;;;;;;6.55;5.15;;;;;;;;;;5013694;28;20097;-89
2023/06/09 11:38:07;;;;;;;12.93;8.25;;;;;;;;;;5012004;28;20034;-88
2023/06/09 11:40:37;;;;;;;6.60;4.70;;;;;;;;;;5026199;28;20029;-90
2023/06/09 11:43:03;;;;;;;6.78;4.30;;;;;;;;;;5022230;28;20036;-91
2023/06/09 11:45:30;;;;;;;7.05;4.72;;;;;;;;;;5028863;28;20033;-89
2023/06/09 11:47:59;;;;;;;6.88;4.80;;;;;;;;;;5016866;28;20049;-90
2023/06/09 11:50:25;;;;;;;;;;;;;;;;;;5049661;28;20025;-88
2023/06/09 11:53:04;;;;;;;5.68;4.40;;;;;;;;;;5036389;28;19913;-91
2023/06/09 11:55:30;;;;;;;6.25;4.75;;;;;;;;;;5015729;28;20032;-89
2023/06/09 11:57:55;;;;;;;8.65;4.90;;;;;;;;;;5030958;28;20294;-85
2023/06/09 12:00:26;;;;;;;11.93;5.47;;;;;;;;;;5014501;28;20461;-88
2023/06/09 12:02:52;;;;;;;6.32;5.25;;;;;;;;;;5030484;28;20561;-88
2023/06/09 12:05:17;;;;;;;8.82;5.45;;;;;;;;;;5018663;28;20116;-91
2023/06/09 12:07:43;;;;;;;7.97;4.85;;;;;;;;;;5052285;28;20032;-88
2023/06/09 12:10:09;;;;;;;7.15;4.55;;;;;;;;;;5022367;28;20022;-89
2023/06/09 12:12:47;;;;;;;15.90;6.93;;;;;;;;;;5054142;28;20033;-90
2023/06/09 12:15:13;;;;;;;11.75;5.40;;;;;;;;;;5054927;28;20033;-88
2023/06/09 12:17:39;;;;;;;9.77;5.00;;;;;;;;;;5057734;28;20048;-90
2023/06/09 12:20:29;;;;;;;8.95;5.00;;;;;;;;;;5033610;28;20455;-89
2023/06/09 12:23:12;;;;;;;9.57;4.70;;;;;;;;;;5036860;28;20025;-89
2023/06/09 12:25:41;;;;;;;8.30;4.70;;;;;;;;;;5033441;28;20104;-91
2023/06/09 12:28:21;;;;;;;8.93;4.88;;;;;;;;;;5049880;28;20033;-90
2023/06/09 12:30:51;;;;;;;9.07;4.97;;;;;;;;;;5017238;28;20025;-91
2023/06/09 12:33:17;;;;;;;;;;;;;;;;;;5013091;28;20387;-90
2023/06/09 12:35:54;;;;;;;12.25;5.00;;;;;;;;;;5013980;28;19949;-89
2023/06/09 12:38:24;;;;;;;6.15;4.65;;;;;;;;;;5014714;28;20087;-88
2023/06/09 12:40:50;;;;;;;7.93;4.82;;;;;;;;;;5031188;28;20033;-88
2023/06/09 12:43:17;;;;;;;7.97;4.38;;;;;;;;;;5034158;28;20064;-88
2023/06/09 12:45:43;;;;;;;9.32;4.82;;;;;;;;;;5015601;28;20037;-86
2023/06/09 12:48:08;;;;;;;8.18;4.60;;;;;;;;;;5015382;28;20058;-86
2023/06/09 12:50:34;;;;;;;12.20;4.80;;;;;;;;;;5015509;28;20029;-88
2023/06/09 12:53:00;;;;;;;8.40;4.85;;;;;;;;;;5030143;28;20124;-91
2023/06/09 12:55:25;;;;;;;10.90;4.82;;;;;;;;;;5029444;28;20136;-77
2023/06/09 12:57:51;;;;;;;10.48;4.70;;;;;;;;;;5013879;28;20443;-77
2023/06/09 13:00:16;;;;;;;9.55;4.53;;;;;;;;;;5012535;28;20064;-77
2023/06/09 13:02:43;;;;;;;12.43;4.90;;;;;;;;;;5013785;28;20139;-78
2023/06/09 13:05:08;;;;;;;7.60;4.07;;;;;;;;;;5012301;28;20069;-77
2023/06/09 13:07:34;;;;;;;9.55;4.15;;;;;;;;;;5012568;28;20428;-77
2023/06/09 13:10:00;;;;;;;6.97;4.60;;;;;;;;;;5012335;28;20363;-78
2023/06/09 13:12:26;;;;;;;6.30;4.35;;;;;;;;;;5013165;28;20121;-78
2023/06/09 13:14:51;;;;;;;6.82;4.82;;;;;;;;;;5013625;28;20129;-77
2023/06/09 13:17:16;;;;;;;9.05;4.15;;;;;;;;;;5013707;28;20076;-77
2023/06/09 13:19:42;;;;;;;6.20;4.70;;;;;;;;;;5029085;28;20033;-78
2023/06/09 13:22:07;;;;;;;8.30;4.82;;;;;;;;;;5013619;28;20029;-77
2023/06/09 13:24:33;;;;;;;10.40;4.75;;;;;;;;;;5013472;28;20033;-78
2023/06/09 13:26:58;;;;;;;6.68;4.68;;;;;;;;;;5013227;28;20044;-78
2023/06/09 13:29:23;;;;;;;7.30;4.75;;;;;;;;;;5012313;28;20026;-78
2023/06/09 13:31:49;;;;;;;9.95;4.80;;;;;;;;;;5013251;28;20022;-78
2023/06/09 13:34:14;;;;;;;13.00;4.47;;;;;;;;;;5013643;28;20026;-78
2023/06/09 13:36:40;;;;;;;6.47;4.75;;;;;;;;;;5031160;28;20021;-78
2023/06/09 13:39:05;;;;;;;7.53;4.70;;;;;;;;;;5031967;28;20379;-82
2023/06/09 13:41:31;;;;;;;12.35;4.43;;;;;;;;;;5032997;28;20115;-79
2023/06/09 13:43:59;;;;;;;7.93;4.75;;;;;;;;;;5033347;28;20034;-82
2023/06/09 13:46:24;;;;;;;12.80;4.65;;;;;;;;;;5048659;28;20056;-82
2023/06/09 13:48:49;;;;;;;6.18;4.15;;;;;;;;;;5033201;28;20092;-84
2023/06/09 13:51:15;;;;;;;8.63;4.30;;;;;;;;;;5035105;28;20034;-83
2023/06/09 13:53:40;;;;;;;8.82;3.97;;;;;;;;;;5032107;28;20040;-84
2023/06/09 13:56:06;;;;;;;7.57;4.30;;;;;;;;;;5032916;28;20155;-83
2023/06/09 13:58:31;;;;;;;6.90;4.60;;;;;;;;;;5032003;28;20033;-81
2023/06/09 14:00:57;;;;;;;9.10;4.63;;;;;;;;;;5031886;28;20359;-82
2023/06/09 14:03:22;;;;;;;8.60;4.32;;;;;;;;;;5015337;28;20041;-82
2023/06/09 14:05:47;;;;;;;7.53;4.13;;;;;;;;;;5032222;28;20030;-82
2023/06/09 14:08:13;;;;;;;8.35;4.80;;;;;;;;;;5031953;28;20056;-89
2023/06/09 14:10:39;;;;;;;9.45;4.40;;;;;;;;;;5032857;28;20094;-88
2023/06/09 14:13:04;;;;;;;9.48;6.00;;;;;;;;;;5049339;28;20036;-89
2023/06/09 14:15:30;;;;;;;8.38;5.18;;;;;;;;;;5032251;28;20029;-88
2023/06/09 14:17:56;;;;;;;7.82;4.93;;;;;;;;;;5035101;28;20026;-84
2023/06/09 14:20:24;;;;;;;11.30;4.70;;;;;;;;;;5035482;28;20033;-86
2023/06/09 14:22:50;;;;;;;5.15;4.10;;;;;;;;;;5036655;28;20037;-87
2023/06/09 14:25:18;;;;;;;15.50;4.57;;;;;;;;;;5035210;28;20417;-86
2023/06/09 14:27:45;;;;;;;14.13;7.15;;;;;;;;;;5037631;28;20033;-89
2023/06/09 14:30:13;;;;;;;14.60;5.55;;;;;;;;;;5052966;28;20029;-89
2023/06/09 14:32:41;;;;;;;10.05;4.68;;;;;;;;;;5052263;28;20017;-91
2023/06/09 14:35:07;;;;;;;8.68;4.88;;;;;;;;;;5051596;28;20029;-92
2023/06/09 14:37:32;;;;;;;42.90;29.50;;;;;;;;;;5008057;28;20132;-90
2023/06/09 14:39:57;;;;;;;10.20;5.25;;;;;;;;;;5015710;28;20076;-82
2023/06/09 14:42:23;;;;;;;11.55;5.00;;;;;;;;;;5016425;28;20080;-83
2023/06/09 14:44:48;;;;;;;6.97;3.95;;;;;;;;;;5015471;28;20030;-77
2023/06/09 14:47:14;;;;;;;4.88;3.75;;;;;;;;;;5016465;28;20040;-77
2023/06/09 14:49:39;;;;;;;5.20;3.60;;;;;;;;;;5016397;28;20044;-77
2023/06/09 14:52:05;;;;;;;10.98;3.95;;;;;;;;;;5016268;28;20368;-77